Kezdőlap
METAR-TAF:

METAR-TAF

Repülőterek :

Hohhot, Kína

földrajzi szélesség: 40-49N, földrajzi hosszúság: 111-41E, magasság: 1065 m

Jelenlegi meteorológiai megfigyelések

A jelentés 23 perccel ezelõtt készült, 19:00 UTC
Északkeleti szél 4 kt
Hőmérséklet 19°C
Páratartalom 64%
Légköri nyomás 1010 hPa
Látótávolság 10 km, vagy több
felhőtlen 1500 m magasságban, és nincs gomolyfelhõ

METAR: ZBHH 071900Z 04002MPS CAVOK 19/12 Q1010 NOSIG

Idő: 03:23 (19:23 UTC)

Előrejelzés

A jelentés 4 órával és 18 perccel ezelõtt készült, 15:05 UTC
Az előrejelzés 07-én 18 óra UTC és 08-én 18 óra UTC között érvényes
Délnyugati szél 8 kt
Látótávolság 10 km, vagy több
Kevés felhő 4000 lábon
08-én 06 óra UTC és 08-én 10 óra UTC között ideiglenes
Szórványos felhőzet 4000 lábon, Cumulonimbus.
Kevés felhő 4000 lábon
zivatar, enyhe esõ

TAF: ZBHH 071505Z 0718/0818 23004MPS 9999 FEW040 TX32/0807Z TN17/0721Z TEMPO 0806/0810 -TSRA SCT040CB FEW040

Meteorológiai megfigyelések és előrejelzések több, mint 4000 repülőtéren (METAR és TAF jelentéseket).

A térképen piros és sárga pontok jelzik az elérhető meteorológiai állomásokat.

Mozgassa az egeret a pont fölött, hogy megjelenjen az állomás neve.

Azután kattintson az időjárási megfigyelések és előrejelzések megtekintéséhez.

A térkép megváltoztatása: kattintson a fekete keresztel jelölt zöld gombra ráközelítéshez, a vonallal jelölt zöld gombra távolításhoz, vagy a zöld nyilakra a szomszédos térképek eléréséhez.


METAR-TAF: